createdAt,value
2023-05-06T00:02:39.363Z,71.82
2023-05-06T00:05:42.861Z,71.45
2023-05-06T00:08:46.536Z,72.39
2023-05-06T00:11:49.383Z,73.11
2023-05-06T00:14:52.133Z,72.77
2023-05-06T00:17:55.818Z,73.00
2023-05-06T00:20:58.525Z,73.34
2023-05-06T00:24:01.281Z,72.86
2023-05-06T00:27:04.114Z,74.24
2023-05-06T00:30:07.328Z,72.86
2023-05-06T00:33:10.036Z,72.55
2023-05-06T00:36:12.818Z,73.21
2023-05-06T00:39:16.643Z,73.69
2023-05-06T00:42:19.415Z,73.69
2023-05-06T00:45:22.208Z,73.58
2023-05-06T00:48:25.144Z,74.56
2023-05-06T00:51:28.174Z,74.48
2023-05-06T00:54:31.333Z,73.91
2023-05-06T00:57:34.010Z,73.97
2023-05-06T01:00:36.725Z,73.92
2023-05-06T01:03:40.172Z,74.17
2023-05-06T01:06:48.492Z,74.54
2023-05-06T01:09:56.749Z,74.95
2023-05-06T01:13:22.053Z,75.53
2023-05-06T01:16:27.190Z,74.65
2023-05-06T01:19:39.187Z,76.00
2023-05-06T01:22:41.874Z,75.11
2023-05-06T01:25:44.803Z,75.03
2023-05-06T01:28:47.447Z,74.88
2023-05-06T01:31:51.011Z,76.87
2023-05-06T01:35:09.084Z,78.25
2023-05-06T01:38:47.240Z,77.61
2023-05-06T01:41:50.605Z,75.29
2023-05-06T01:44:58.037Z,74.95
2023-05-06T01:48:00.883Z,74.70
2023-05-06T01:51:03.806Z,75.17
2023-05-06T01:54:06.712Z,76.03
2023-05-06T01:57:09.681Z,76.23
2023-05-06T02:00:12.706Z,76.48
2023-05-06T02:03:15.533Z,76.78
2023-05-06T02:06:18.769Z,77.39
2023-05-06T02:09:21.394Z,76.64
2023-05-06T02:12:30.807Z,76.42
2023-05-06T02:15:33.521Z,78.40
2023-05-06T02:18:36.395Z,77.01
2023-05-06T02:21:39.074Z,76.65
2023-05-06T02:24:41.686Z,77.19
2023-05-06T02:27:45.393Z,76.27
2023-05-06T02:30:48.245Z,76.13
2023-05-06T02:33:51.063Z,76.29
2023-05-06T02:36:53.731Z,77.46
2023-05-06T02:39:57.997Z,77.89
2023-05-06T02:43:00.810Z,78.09
2023-05-06T02:46:03.951Z,77.83
2023-05-06T02:49:06.924Z,77.87
2023-05-06T02:52:09.640Z,78.20
2023-05-06T02:55:12.332Z,78.21
2023-05-06T02:58:15.737Z,78.15
2023-05-06T03:01:18.600Z,78.64
2023-05-06T03:04:22.019Z,78.96
2023-05-06T03:07:24.927Z,78.42
2023-05-06T03:10:27.758Z,79.44
2023-05-06T03:13:32.127Z,81.11
2023-05-06T03:16:35.250Z,80.43
2023-05-06T03:19:38.302Z,79.98
2023-05-06T03:22:43.779Z,78.75
2023-05-06T03:25:46.664Z,78.19
2023-05-06T03:28:50.544Z,78.73
2023-05-06T03:31:56.805Z,78.79
2023-05-06T03:35:01.854Z,78.38
2023-05-06T03:38:04.996Z,78.84
2023-05-06T03:41:15.769Z,78.96
2023-05-06T03:44:18.568Z,78.78
2023-05-06T03:47:21.959Z,78.30
2023-05-06T03:50:25.242Z,78.05
2023-05-06T03:53:30.462Z,77.79
2023-05-06T03:56:33.651Z,77.63
2023-05-06T03:59:36.682Z,77.70
2023-05-06T04:02:42.873Z,77.93
2023-05-06T04:05:51.018Z,78.21
2023-05-06T04:08:57.752Z,78.04
2023-05-06T04:12:03.936Z,78.18
2023-05-06T04:15:07.886Z,78.23
2023-05-06T04:18:11.296Z,77.89
2023-05-06T04:21:18.707Z,78.60
2023-05-06T04:24:31.669Z,77.25
2023-05-06T04:27:36.082Z,76.50
2023-05-06T04:30:41.637Z,76.06
2023-05-06T04:33:45.037Z,73.85
2023-05-06T04:36:54.598Z,75.51
2023-05-06T04:40:06.630Z,71.18
2023-05-06T04:43:13.193Z,71.64
2023-05-06T04:46:17.505Z,71.45
2023-05-06T04:49:22.206Z,71.18
2023-05-06T04:52:26.968Z,71.06
2023-05-06T04:55:30.306Z,71.83
2023-05-06T04:58:33.273Z,71.16
2023-05-06T05:01:39.163Z,70.88
2023-05-06T05:04:41.987Z,69.92
2023-05-06T05:07:45.902Z,68.99
2023-05-06T05:10:49.287Z,67.92
2023-05-06T05:13:57.720Z,68.07
2023-05-06T05:17:02.158Z,69.40
2023-05-06T05:20:06.093Z,67.90
2023-05-06T05:23:08.912Z,66.88
2023-05-06T05:26:12.017Z,66.68
2023-05-06T05:29:16.928Z,65.74
2023-05-06T05:32:22.078Z,66.54
2023-05-06T05:35:25.172Z,67.31
2023-05-06T05:38:29.458Z,67.93
2023-05-06T05:41:32.452Z,68.64
2023-05-06T05:44:38.544Z,68.67
2023-05-06T05:47:42.312Z,68.95
2023-05-06T05:50:47.408Z,68.58
2023-05-06T05:53:53.720Z,67.58
2023-05-06T05:56:59.361Z,67.25
2023-05-06T06:00:04.778Z,67.58
2023-05-06T06:03:09.035Z,69.65
2023-05-06T06:06:12.122Z,68.99
2023-05-06T06:09:17.202Z,69.31
2023-05-06T06:12:20.852Z,68.00
2023-05-06T06:15:23.706Z,68.20
2023-05-06T06:18:28.580Z,68.65
2023-05-06T06:21:31.524Z,68.89
2023-05-06T06:24:35.447Z,69.62
2023-05-06T06:27:38.415Z,71.81
2023-05-06T06:30:42.424Z,73.06
2023-05-06T06:33:45.529Z,72.26
2023-05-06T06:36:48.349Z,72.88
2023-05-06T06:39:51.260Z,72.28
2023-05-06T06:42:54.204Z,70.91
2023-05-06T06:46:16.074Z,70.45
2023-05-06T06:49:19.006Z,71.13
2023-05-06T06:52:21.919Z,70.85
2023-05-06T06:55:24.768Z,70.88
2023-05-06T06:58:27.425Z,70.88
2023-05-06T07:01:30.495Z,70.36
2023-05-06T07:04:36.145Z,70.20
2023-05-06T07:07:38.993Z,69.78
2023-05-06T07:10:42.141Z,69.50
2023-05-06T07:13:44.994Z,69.56
2023-05-06T07:16:50.078Z,69.66
2023-05-06T07:19:54.283Z,69.80
2023-05-06T07:22:57.140Z,69.38
2023-05-06T07:26:00.314Z,70.60
2023-05-06T07:29:04.592Z,70.03
2023-05-06T07:32:07.368Z,69.06
2023-05-06T07:35:10.418Z,68.98
2023-05-06T07:38:13.648Z,68.31
2023-05-06T07:41:16.693Z,68.10
2023-05-06T07:44:19.498Z,68.69
2023-05-06T07:47:32.795Z,67.98
2023-05-06T07:50:36.090Z,69.11
2023-05-06T07:53:40.590Z,69.47
2023-05-06T07:56:44.278Z,69.78
2023-05-06T07:59:51.570Z,69.57
2023-05-06T08:02:57.147Z,69.69
2023-05-06T08:06:00.671Z,68.39
2023-05-06T08:09:03.745Z,70.04
2023-05-06T08:12:06.733Z,70.60
2023-05-06T08:15:10.433Z,70.15
2023-05-06T08:18:21.909Z,70.30
2023-05-06T08:21:26.004Z,70.31
2023-05-06T08:24:28.929Z,69.73
2023-05-06T08:27:31.903Z,71.12
2023-05-06T08:30:34.973Z,71.99
2023-05-06T08:33:37.797Z,71.01
2023-05-06T08:36:40.459Z,71.39
2023-05-06T08:39:43.152Z,71.02
2023-05-06T08:42:47.392Z,72.58
2023-05-06T08:45:50.430Z,72.84
2023-05-06T08:48:53.351Z,72.75
2023-05-06T08:51:57.215Z,72.63
2023-05-06T08:55:02.369Z,71.83
2023-05-06T08:58:07.564Z,72.74
2023-05-06T09:01:10.665Z,72.67
2023-05-06T09:04:13.751Z,72.53
2023-05-06T09:07:16.504Z,71.47
2023-05-06T09:10:19.312Z,71.65
2023-05-06T09:13:22.325Z,71.74
2023-05-06T09:16:34.334Z,72.05
2023-05-06T09:19:38.804Z,72.33
2023-05-06T09:22:41.799Z,73.37
2023-05-06T09:25:46.536Z,72.24
2023-05-06T09:28:49.233Z,72.29
2023-05-06T09:31:54.444Z,71.61
2023-05-06T09:34:57.584Z,71.88
2023-05-06T09:38:00.234Z,71.68
2023-05-06T09:41:05.048Z,70.49
2023-05-06T09:44:07.797Z,71.09
2023-05-06T09:47:11.230Z,71.20
2023-05-06T09:50:14.328Z,72.05
2023-05-06T09:53:18.323Z,71.90
2023-05-06T09:56:21.884Z,70.13
2023-05-06T09:59:25.461Z,71.73
2023-05-06T10:02:29.249Z,72.13
2023-05-06T10:05:32.972Z,72.15
2023-05-06T10:08:36.748Z,72.37
2023-05-06T10:11:40.160Z,72.90
2023-05-06T10:14:43.158Z,73.71
2023-05-06T10:17:48.706Z,73.46
2023-05-06T10:20:54.089Z,71.86
2023-05-06T10:24:09.734Z,71.96
2023-05-06T10:27:13.204Z,71.46
2023-05-06T10:30:19.878Z,71.92
2023-05-06T10:33:24.023Z,72.65
2023-05-06T10:36:29.127Z,71.40
2023-05-06T10:39:31.983Z,71.78
2023-05-06T10:42:35.844Z,71.24
2023-05-06T10:45:59.274Z,72.11
2023-05-06T10:49:05.941Z,70.96
2023-05-06T10:52:15.588Z,73.74
2023-05-06T10:55:33.751Z,73.59
2023-05-06T10:58:36.844Z,73.70
2023-05-06T11:01:43.985Z,73.32
2023-05-06T11:05:00.493Z,75.60
2023-05-06T11:08:11.081Z,76.72
2023-05-06T11:11:47.839Z,76.02
2023-05-06T11:14:50.729Z,75.54
2023-05-06T11:17:57.338Z,77.32
2023-05-06T11:21:03.754Z,79.92
2023-05-06T11:24:07.149Z,81.34
2023-05-06T11:27:11.155Z,80.44
2023-05-06T11:30:15.260Z,79.97
2023-05-06T11:33:22.420Z,79.42
2023-05-06T11:36:25.363Z,77.63
2023-05-06T11:39:36.661Z,76.60
2023-05-06T11:42:42.427Z,74.36
2023-05-06T11:45:46.931Z,70.79
2023-05-06T11:48:50.784Z,68.18
2023-05-06T11:51:54.716Z,66.98
2023-05-06T11:54:57.508Z,66.08
2023-05-06T11:58:00.533Z,69.56
2023-05-06T12:01:04.727Z,68.01
2023-05-06T12:04:07.720Z,68.88
2023-05-06T12:07:13.286Z,64.83
2023-05-06T12:10:17.517Z,66.58
2023-05-06T12:13:20.785Z,65.93
2023-05-06T12:16:25.158Z,65.32
2023-05-06T12:19:30.669Z,66.76
2023-05-06T12:22:33.697Z,65.86
2023-05-06T12:25:36.752Z,64.19
2023-05-06T12:28:42.911Z,63.91
2023-05-06T12:31:49.892Z,62.29
2023-05-06T12:34:52.931Z,60.53
2023-05-06T12:37:57.219Z,62.56
2023-05-06T12:41:00.380Z,62.54
2023-05-06T12:44:03.589Z,61.87
2023-05-06T12:47:08.571Z,60.50
2023-05-06T12:50:12.083Z,60.95
2023-05-06T12:53:31.639Z,61.01
2023-05-06T12:56:35.650Z,63.32
2023-05-06T12:59:38.753Z,62.86
2023-05-06T13:02:41.894Z,64.36
2023-05-06T13:05:45.046Z,64.37
2023-05-06T13:08:47.772Z,62.73
2023-05-06T13:11:51.401Z,61.50
2023-05-06T13:14:54.298Z,60.50
2023-05-06T13:17:57.618Z,58.67
2023-05-06T13:21:00.991Z,61.03
2023-05-06T13:24:04.465Z,63.04
2023-05-06T13:27:07.420Z,63.60
2023-05-06T13:30:10.765Z,63.45
2023-05-06T13:33:13.753Z,63.38
2023-05-06T13:36:16.696Z,63.43
2023-05-06T13:39:20.187Z,62.83
2023-05-06T13:42:23.016Z,61.46
2023-05-06T13:45:26.302Z,61.99
2023-05-06T13:48:29.005Z,62.32
2023-05-06T13:51:33.841Z,62.65
2023-05-06T13:54:36.718Z,61.33
2023-05-06T13:57:39.733Z,59.53
2023-05-06T14:00:42.424Z,59.72
2023-05-06T14:03:45.174Z,60.15
2023-05-06T14:06:47.935Z,61.00
2023-05-06T14:09:50.563Z,59.89
2023-05-06T14:12:53.994Z,60.69
2023-05-06T14:15:56.999Z,59.08
2023-05-06T14:19:02.548Z,61.08
2023-05-06T14:22:05.408Z,62.15
2023-05-06T14:25:11.662Z,61.82
2023-05-06T14:28:15.999Z,62.37
2023-05-06T14:31:18.873Z,62.76
2023-05-06T14:34:21.811Z,62.97
2023-05-06T14:37:24.938Z,63.46
2023-05-06T14:40:28.131Z,64.53
2023-05-06T14:43:31.090Z,64.41
2023-05-06T14:46:33.872Z,64.51
2023-05-06T14:49:36.653Z,65.18
2023-05-06T14:52:40.487Z,66.55
2023-05-06T14:55:43.266Z,71.72
2023-05-06T14:58:46.813Z,73.14
2023-05-06T15:01:49.637Z,78.12
2023-05-06T15:04:54.910Z,79.31
2023-05-06T15:07:57.705Z,77.46
2023-05-06T15:11:03.060Z,77.89
2023-05-06T15:14:06.995Z,79.90
2023-05-06T15:17:10.021Z,78.39
2023-05-06T15:20:13.850Z,78.44
2023-05-06T15:23:16.849Z,78.61
2023-05-06T15:26:19.639Z,75.85
2023-05-06T15:29:22.749Z,74.03
2023-05-06T15:32:25.809Z,74.28
2023-05-06T15:35:28.790Z,73.52
2023-05-06T15:39:00.082Z,74.20
2023-05-06T15:42:03.338Z,73.25
2023-05-06T15:45:07.333Z,74.35
2023-05-06T15:48:10.316Z,72.85
2023-05-06T15:51:13.278Z,71.68
2023-05-06T15:54:19.998Z,70.93
2023-05-06T15:57:23.389Z,71.42
2023-05-06T16:00:26.512Z,69.49
2023-05-06T16:03:30.000Z,70.61
2023-05-06T16:06:35.400Z,74.42
2023-05-06T16:09:39.448Z,76.20
2023-05-06T16:12:42.477Z,74.66
2023-05-06T16:15:51.221Z,71.95
2023-05-06T16:18:54.315Z,73.17
2023-05-06T16:21:57.410Z,73.43
2023-05-06T16:25:00.454Z,73.99
2023-05-06T16:28:07.156Z,73.62
2023-05-06T16:31:10.012Z,74.22
2023-05-06T16:34:13.119Z,73.02
2023-05-06T16:37:16.322Z,73.59
2023-05-06T16:40:23.445Z,74.32
2023-05-06T16:43:26.748Z,74.35
2023-05-06T16:46:29.815Z,74.92
2023-05-06T16:49:34.182Z,75.39
2023-05-06T16:52:37.221Z,75.81
2023-05-06T16:55:40.215Z,76.76
2023-05-06T16:58:43.153Z,77.59
2023-05-06T17:01:45.968Z,78.95
2023-05-06T17:04:48.924Z,79.02
2023-05-06T17:07:51.755Z,79.51
2023-05-06T17:10:54.585Z,79.87
2023-05-06T17:13:57.501Z,79.29
2023-05-06T17:17:03.422Z,79.90
2023-05-06T17:20:07.527Z,80.56
2023-05-06T17:23:10.319Z,81.03
2023-05-06T17:26:13.604Z,81.38
2023-05-06T17:29:16.472Z,81.77
2023-05-06T17:32:20.244Z,82.09
2023-05-06T17:35:23.047Z,81.49
2023-05-06T17:38:26.204Z,80.81
2023-05-06T17:41:29.319Z,81.06
2023-05-06T17:44:33.335Z,82.16
2023-05-06T17:47:38.478Z,82.26
2023-05-06T17:50:41.704Z,82.46
2023-05-06T17:53:44.692Z,82.24
2023-05-06T17:56:50.885Z,82.20
2023-05-06T17:59:53.906Z,81.96
2023-05-06T18:02:56.925Z,82.86
2023-05-06T18:06:00.399Z,82.88
2023-05-06T18:09:03.541Z,83.75
2023-05-06T18:12:07.010Z,85.24
2023-05-06T18:15:10.480Z,83.88
2023-05-06T18:18:13.529Z,84.06
2023-05-06T18:21:16.287Z,85.96
2023-05-06T18:24:19.291Z,85.66
2023-05-06T18:27:22.860Z,84.08
2023-05-06T18:30:26.274Z,82.95
2023-05-06T18:33:29.279Z,85.00
2023-05-06T18:36:32.490Z,87.44
2023-05-06T18:39:40.911Z,84.95
2023-05-06T18:42:43.757Z,83.94
2023-05-06T18:45:50.847Z,84.73
2023-05-06T18:48:56.299Z,84.78
2023-05-06T18:51:59.197Z,84.83
2023-05-06T18:55:04.698Z,84.93
2023-05-06T18:58:07.822Z,85.00
2023-05-06T19:01:11.714Z,84.54
2023-05-06T19:04:14.678Z,84.09
2023-05-06T19:07:17.661Z,83.16
2023-05-06T19:10:20.641Z,84.35
2023-05-06T19:13:23.961Z,84.80
2023-05-06T19:16:27.028Z,86.14
2023-05-06T19:19:29.904Z,86.14
2023-05-06T19:22:33.597Z,85.30
2023-05-06T19:25:38.027Z,86.71
2023-05-06T19:28:41.297Z,87.18
2023-05-06T19:31:44.694Z,86.26
2023-05-06T19:34:47.653Z,86.06
2023-05-06T19:37:56.110Z,85.49
2023-05-06T19:40:59.249Z,85.18
2023-05-06T19:44:02.284Z,87.19
2023-05-06T19:47:05.115Z,88.39
2023-05-06T19:50:09.097Z,87.15
2023-05-06T19:53:12.090Z,86.18
2023-05-06T19:56:17.779Z,85.76
2023-05-06T19:59:20.872Z,85.50
2023-05-06T20:02:24.114Z,85.28
2023-05-06T20:05:31.351Z,84.84
2023-05-06T20:08:35.330Z,84.68
2023-05-06T20:11:38.667Z,84.57
2023-05-06T20:14:42.045Z,84.88
2023-05-06T20:17:44.859Z,85.56
2023-05-06T20:20:47.613Z,85.35
2023-05-06T20:23:50.495Z,84.46
2023-05-06T20:26:53.169Z,84.88
2023-05-06T20:29:55.952Z,84.96
2023-05-06T20:32:59.282Z,84.69
2023-05-06T20:36:02.070Z,85.39
2023-05-06T20:39:05.195Z,84.52
2023-05-06T20:42:09.252Z,84.08
2023-05-06T20:45:13.592Z,85.03
2023-05-06T20:48:16.677Z,86.38
2023-05-06T20:51:19.636Z,86.84
2023-05-06T20:54:22.324Z,86.81
2023-05-06T20:57:25.188Z,85.90
2023-05-06T21:00:28.073Z,86.17
2023-05-06T21:03:31.464Z,87.07
2023-05-06T21:06:34.323Z,87.34
2023-05-06T21:09:38.592Z,87.46
2023-05-06T21:12:47.810Z,87.17
2023-05-06T21:15:50.793Z,87.56
2023-05-06T21:18:53.560Z,88.22
2023-05-06T21:21:57.009Z,89.14
2023-05-06T21:25:00.109Z,88.71
2023-05-06T21:28:07.046Z,87.92
2023-05-06T21:31:09.792Z,91.03
2023-05-06T21:34:12.616Z,89.24
2023-05-06T21:37:15.341Z,89.28
2023-05-06T21:40:18.479Z,89.44
2023-05-06T21:43:21.804Z,90.36
2023-05-06T21:46:24.646Z,91.94
2023-05-06T21:49:27.307Z,91.15
2023-05-06T21:52:30.304Z,90.55
2023-05-06T21:55:33.047Z,91.10
2023-05-06T21:58:36.349Z,91.16
2023-05-06T22:01:39.195Z,92.97
2023-05-06T22:04:42.444Z,93.98
2023-05-06T22:07:45.199Z,92.53
2023-05-06T22:10:47.920Z,92.00
2023-05-06T22:13:50.711Z,91.27
2023-05-06T22:16:53.502Z,92.08
2023-05-06T22:19:56.459Z,91.95
2023-05-06T22:23:00.156Z,92.47
2023-05-06T22:26:03.352Z,91.73
2023-05-06T22:29:06.258Z,93.25
2023-05-06T22:32:09.065Z,92.61
2023-05-06T22:35:12.057Z,93.07
2023-05-06T22:38:14.958Z,100.00
2023-05-06T22:41:18.490Z,100.00
2023-05-06T22:44:21.644Z,100.00
2023-05-06T22:47:24.464Z,100.00
2023-05-06T22:50:27.320Z,100.00
2023-05-06T22:53:30.212Z,100.00
2023-05-06T22:56:33.222Z,100.00
2023-05-06T22:59:36.134Z,100.00
2023-05-06T23:02:39.472Z,100.00
2023-05-06T23:05:42.443Z,100.00
2023-05-06T23:08:45.344Z,100.00
2023-05-06T23:11:48.080Z,100.00
2023-05-06T23:14:51.200Z,100.00
2023-05-06T23:17:54.204Z,100.00
2023-05-06T23:20:57.090Z,100.00
2023-05-06T23:23:59.742Z,100.00
2023-05-06T23:27:02.448Z,100.00
2023-05-06T23:30:06.072Z,100.00
2023-05-06T23:33:09.155Z,100.00
2023-05-06T23:36:12.040Z,100.00
2023-05-06T23:39:14.660Z,100.00
2023-05-06T23:42:17.316Z,100.00
2023-05-06T23:45:20.667Z,100.00
2023-05-06T23:48:23.467Z,100.00
2023-05-06T23:51:26.880Z,100.00
2023-05-06T23:54:30.049Z,100.00
2023-05-06T23:57:32.726Z,100.00
